Time;durP1;ratioP1;P1;durP2;ratioP2;P2;SDS_P1;SDS_P2;PMS_P1;PMS_P2;Temp;Humidity;BMP_temperature;BMP_pressure;BME280_temperature;BME280_humidity;BME280_pressure;Samples;Min_cycle;Max_cycle;Signal;HPM_P1;HPM_P2
2023/05/03 00:02:02;;;;;;;14.48;12.27;;;;;;;15.74;52.04;101038.41;4917522;28;101104;-82
2023/05/03 00:04:28;;;;;;;14.75;13.27;;;;;;;15.87;51.75;101069.63;4938512;28;97125;-82
2023/05/03 00:06:54;;;;;;;13.65;12.30;;;;;;;15.87;51.59;101065.19;4917450;28;97595;-82
2023/05/03 00:09:20;;;;;;;15.23;12.57;;;;;;;15.90;50.96;101069.47;4922186;28;97604;-82
2023/05/03 00:11:45;;;;;;;12.80;11.80;;;;;;;15.80;50.20;101058.44;4903219;28;101203;-82
2023/05/03 00:14:11;;;;;;;14.48;12.50;;;;;;;15.73;49.97;101054.34;4918811;28;97167;-85
2023/05/03 00:16:36;;;;;;;13.63;12.38;;;;;;;15.69;50.10;101058.06;4913801;28;96769;-82
2023/05/03 00:19:02;;;;;;;15.20;13.15;;;;;;;15.72;49.76;101072.00;4909220;28;101799;-82
2023/05/03 00:21:27;;;;;;;13.77;12.43;;;;;;;15.68;49.36;101065.13;4923346;28;101226;-82
2023/05/03 00:23:53;;;;;;;14.20;12.63;;;;;;;15.64;49.01;101074.09;4912036;28;97502;-83
2023/05/03 00:26:19;;;;;;;13.02;11.93;;;;;;;15.59;49.00;101084.88;4921879;28;96954;-84
2023/05/03 00:28:45;;;;;;;15.25;11.73;;;;;;;15.47;49.17;101056.28;4918657;28;101393;-82
2023/05/03 00:31:10;;;;;;;13.95;12.60;;;;;;;15.54;48.99;101068.34;4921785;28;100352;-85
2023/05/03 00:33:37;;;;;;;13.45;12.15;;;;;;;15.60;49.26;101077.81;4922208;28;97034;-83
2023/05/03 00:36:10;;;;;;;12.60;11.30;;;;;;;15.56;49.48;101071.78;4934972;28;97159;-83
2023/05/03 00:38:37;;;;;;;17.25;12.70;;;;;;;15.58;49.35;101077.00;4901891;28;99288;-82
2023/05/03 00:41:03;;;;;;;12.98;11.77;;;;;;;15.49;49.35;101069.47;4917875;28;101603;-83
2023/05/03 00:43:30;;;;;;;13.73;12.02;;;;;;;15.45;49.36;101076.66;4910057;28;97130;-82
2023/05/03 00:46:04;;;;;;;13.48;11.52;;;;;;;15.37;49.33;101069.06;4915493;28;96907;-82
2023/05/03 00:48:29;;;;;;;13.45;12.05;;;;;;;15.42;49.08;101082.09;4911228;28;100407;-81
2023/05/03 00:50:56;;;;;;;13.40;12.18;;;;;;;15.45;49.06;101094.34;4930097;28;101320;-81
2023/05/03 00:53:22;;;;;;;13.00;11.93;;;;;;;15.36;49.04;101072.63;4921243;28;97697;-81
2023/05/03 00:55:51;;;;;;;13.88;12.25;;;;;;;15.42;48.97;101082.09;4914820;28;97530;-81
2023/05/03 00:58:16;;;;;;;13.43;12.02;;;;;;;15.35;48.57;101078.81;4914781;28;98084;-81
2023/05/03 01:00:42;;;;;;;23.23;11.52;;;;;;;15.35;48.54;101077.97;4916465;28;101458;-82
2023/05/03 01:03:08;;;;;;;18.83;12.63;;;;;;;15.22;48.75;101069.69;4919057;28;97361;-81
2023/05/03 01:05:45;;;;;;;13.18;11.98;;;;;;;15.31;48.70;101084.31;4917909;28;97611;-85
2023/05/03 01:08:20;;;;;;;13.93;11.85;;;;;;;15.34;48.56;101089.47;4928301;28;100931;-82
2023/05/03 01:10:51;;;;;;;13.05;11.80;;;;;;;15.28;48.52;101095.03;4925518;28;101422;-82
2023/05/03 01:13:35;;;;;;;12.27;11.02;;;;;;;15.29;48.62;101102.03;4929294;28;96884;-81
2023/05/03 01:16:22;;;;;;;13.23;12.02;;;;;;;15.03;48.81;101074.88;4928515;28;97003;-82
2023/05/03 01:18:50;;;;;;;15.10;12.27;;;;;;;15.25;48.51;101106.59;4933991;28;101246;-82
2023/05/03 01:21:17;;;;;;;12.32;11.05;;;;;;;15.19;48.52;101098.06;4929240;28;98007;-81
2023/05/03 01:23:50;;;;;;;12.07;11.13;;;;;;;15.26;48.53;101112.75;4921823;28;97350;-81
2023/05/03 01:26:20;;;;;;;15.55;12.30;;;;;;;15.11;48.40;101096.56;4910874;28;96817;-82
2023/05/03 01:28:46;;;;;;;14.77;12.23;;;;;;;15.20;48.56;101108.56;4931047;28;98463;-82
2023/05/03 01:31:17;;;;;;;12.90;11.55;;;;;;;15.15;48.43;101108.78;4934001;28;98933;-82
2023/05/03 01:33:48;;;;;;;12.18;11.00;;;;;;;15.12;48.36;101113.28;4931264;28;97929;-82
2023/05/03 01:36:22;;;;;;;14.88;11.88;;;;;;;15.10;48.44;101118.66;4906512;28;97342;-82
2023/05/03 01:38:49;;;;;;;14.23;11.57;;;;;;;15.10;48.38;101116.00;4951140;28;98745;-82
2023/05/03 01:41:16;;;;;;;17.75;12.07;;;;;;;14.97;48.69;101104.19;4928382;28;101899;-82
2023/05/03 01:43:42;;;;;;;13.68;12.35;;;;;;;15.06;48.64;101126.75;4933520;28;97471;-82
2023/05/03 01:46:08;;;;;;;12.77;11.68;;;;;;;15.01;48.66;101115.50;4928000;28;97142;-82
2023/05/03 01:48:34;;;;;;;15.48;12.48;;;;;;;14.95;48.61;101113.97;4931292;28;101390;-83
2023/05/03 01:51:01;;;;;;;13.27;12.02;;;;;;;14.99;48.85;101127.94;4943489;28;98541;-82
2023/05/03 01:53:26;;;;;;;13.52;12.25;;;;;;;14.92;48.75;101107.03;4916575;28;97112;-82
2023/05/03 01:55:52;;;;;;;13.80;12.32;;;;;;;14.79;48.77;101091.72;4925810;28;97556;-82
2023/05/03 01:58:18;;;;;;;12.93;11.30;;;;;;;15.03;48.85;101126.88;4912907;28;101162;-82
2023/05/03 02:00:45;;;;;;;14.75;12.70;;;;;;;14.95;48.86;101119.25;4934197;28;101525;-82
2023/05/03 02:03:10;;;;;;;13.48;12.07;;;;;;;14.98;49.38;101128.84;4911811;28;96852;-83
2023/05/03 02:05:36;;;;;;;15.43;13.82;;;;;;;14.97;49.58;101135.06;4933439;28;97026;-82
2023/05/03 02:08:01;;;;;;;15.23;13.02;;;;;;;14.92;49.44;101137.88;4910327;28;102086;-82
2023/05/03 02:10:27;;;;;;;13.35;12.07;;;;;;;14.91;49.32;101138.81;4925286;28;101372;-84
2023/05/03 02:12:54;;;;;;;13.15;11.93;;;;;;;14.81;48.44;101121.59;4920128;28;97824;-81
2023/05/03 02:15:19;;;;;;;12.52;11.07;;;;;;;14.80;48.14;101130.44;4915968;28;96889;-82
2023/05/03 02:17:47;;;;;;;13.02;11.63;;;;;;;14.78;47.82;101146.38;4908314;28;101774;-83
2023/05/03 02:20:12;;;;;;;12.52;11.20;;;;;;;14.74;47.73;101128.88;4900955;28;101395;-84
2023/05/03 02:22:38;;;;;;;14.10;12.25;;;;;;;14.76;48.00;101140.25;4932703;28;97258;-82
2023/05/03 02:25:05;;;;;;;12.80;11.60;;;;;;;14.64;47.75;101124.88;4907617;28;96960;-84
2023/05/03 02:27:30;;;;;;;13.50;11.48;;;;;;;14.61;47.91;101135.56;4947063;28;101430;-82
2023/05/03 02:29:56;;;;;;;12.07;10.95;;;;;;;14.67;47.46;101138.84;4933632;28;101747;-82
2023/05/03 02:32:22;;;;;;;16.27;12.75;;;;;;;14.66;47.80;101136.25;4948712;28;97864;-82
2023/05/03 02:34:48;;;;;;;12.70;11.48;;;;;;;14.58;47.56;101136.56;4917169;28;97377;-81
2023/05/03 02:37:18;;;;;;;12.52;11.35;;;;;;;14.53;47.64;101148.19;4915246;28;101817;-82
2023/05/03 02:39:45;;;;;;;12.43;11.23;;;;;;;14.45;47.88;101132.59;4918470;28;100037;-83
2023/05/03 02:42:12;;;;;;;14.15;12.07;;;;;;;14.33;47.97;101119.84;4939729;28;96894;-87
2023/05/03 02:44:38;;;;;;;15.65;11.82;;;;;;;14.43;47.76;101142.38;4935886;28;97013;-82
2023/05/03 02:47:04;;;;;;;12.15;11.10;;;;;;;14.35;47.66;101141.78;4912077;28;101025;-83
2023/05/03 02:49:30;;;;;;;13.07;11.73;;;;;;;14.36;47.66;101147.00;4927805;28;100946;-81
2023/05/03 02:51:56;;;;;;;12.30;11.15;;;;;;;14.29;47.78;101134.97;4935500;28;96813;-82
2023/05/03 02:54:22;;;;;;;12.90;11.82;;;;;;;14.29;47.38;101155.22;4928622;28;97974;-82
2023/05/03 02:56:48;;;;;;;12.70;11.50;;;;;;;14.21;47.75;101147.56;4938519;28;101926;-81
2023/05/03 02:59:14;;;;;;;12.20;11.10;;;;;;;14.16;47.50;101147.72;4932911;28;100981;-85
2023/05/03 03:01:39;;;;;;;11.85;10.80;;;;;;;14.23;47.57;101157.16;4925772;28;97241;-82
2023/05/03 03:04:05;;;;;;;13.20;12.00;;;;;;;14.18;47.94;101156.47;4920985;28;96901;-82
2023/05/03 03:06:31;;;;;;;15.65;12.02;;;;;;;14.00;47.67;101141.28;4916588;28;101295;-81
2023/05/03 03:08:57;;;;;;;13.60;12.40;;;;;;;14.10;47.68;101160.28;4917164;28;101259;-81
2023/05/03 03:11:24;;;;;;;12.13;11.02;;;;;;;14.00;47.33;101152.69;4945259;28;97247;-81
2023/05/03 03:13:49;;;;;;;12.90;11.63;;;;;;;13.92;47.28;101144.19;4908584;28;97337;-81
2023/05/03 03:16:15;;;;;;;13.38;12.00;;;;;;;13.90;47.20;101164.47;4889357;28;101420;-84
2023/05/03 03:18:40;;;;;;;13.32;12.02;;;;;;;13.84;47.33;101169.09;4947697;28;100915;-81
2023/05/03 03:21:07;;;;;;;11.30;10.10;;;;;;;13.78;47.78;101165.75;4902026;28;97843;-82
2023/05/03 03:23:34;;;;;;;11.82;10.57;;;;;;;13.75;47.70;101178.19;4944500;28;97455;-82
2023/05/03 03:26:00;;;;;;;15.73;12.20;;;;;;;13.74;48.07;101173.84;4937924;28;100070;-82
2023/05/03 03:28:26;;;;;;;11.07;9.98;;;;;;;13.68;48.46;101159.09;4937223;28;101645;-81
2023/05/03 03:30:53;;;;;;;12.65;11.07;;;;;;;13.71;48.13;101172.16;4929721;28;97312;-81
2023/05/03 03:33:24;;;;;;;11.82;10.82;;;;;;;13.68;48.12;101176.69;4933471;28;97019;-81
2023/05/03 03:35:51;;;;;;;12.70;11.48;;;;;;;13.59;48.15;101157.63;4935875;28;100198;-81
2023/05/03 03:38:18;;;;;;;13.70;11.65;;;;;;;13.66;48.59;101171.44;4938115;28;97564;-81
2023/05/03 03:40:53;;;;;;;12.18;10.70;;;;;;;13.61;48.55;101154.06;4926587;28;97275;-81
2023/05/03 03:43:19;;;;;;;11.98;10.73;;;;;;;13.68;48.52;101174.06;4925950;28;96878;-83
2023/05/03 03:45:45;;;;;;;13.68;10.35;;;;;;;13.66;48.94;101174.09;4935588;28;102083;-82
2023/05/03 03:48:13;;;;;;;12.05;10.80;;;;;;;13.61;48.90;101169.88;4941818;28;101551;-82
2023/05/03 03:50:38;;;;;;;11.10;10.00;;;;;;;13.62;49.07;101187.44;4927598;28;97910;-82
2023/05/03 03:53:05;;;;;;;12.75;11.55;;;;;;;13.62;49.24;101184.81;4934573;28;96853;-81
2023/05/03 03:55:32;;;;;;;16.23;11.32;;;;;;;13.58;48.97;101177.00;4928838;28;101383;-83
2023/05/03 03:57:57;;;;;;;13.43;11.10;;;;;;;13.56;49.14;101188.50;4914883;28;101437;-82
2023/05/03 04:00:25;;;;;;;12.70;11.50;;;;;;;13.52;49.05;101192.16;4942972;28;96743;-81
2023/05/03 04:02:59;;;;;;;13.55;12.18;;;;;;;13.36;48.72;101170.69;4946451;28;97059;-82
2023/05/03 04:05:25;;;;;;;17.48;10.80;;;;;;;13.45;48.85;101185.34;4942179;28;97674;-83
2023/05/03 04:07:51;;;;;;;13.88;11.57;;;;;;;13.43;49.24;101206.50;4916012;28;101292;-81
2023/05/03 04:10:18;;;;;;;16.48;11.32;;;;;;;13.42;49.38;101202.13;4930006;28;97249;-83
2023/05/03 04:12:44;;;;;;;14.95;12.00;;;;;;;13.35;49.32;101205.88;4920842;28;97423;-81
2023/05/03 04:15:12;;;;;;;13.00;11.65;;;;;;;13.35;49.00;101203.22;4896422;28;101607;-82
2023/05/03 04:17:39;;;;;;;14.30;11.30;;;;;;;13.35;49.19;101214.66;4926629;28;101860;-82
2023/05/03 04:20:09;;;;;;;12.70;11.60;;;;;;;13.34;49.15;101212.06;4926090;28;97030;-82
2023/05/03 04:22:38;;;;;;;11.88;10.77;;;;;;;13.23;49.15;101209.72;4927247;28;97513;-82
2023/05/03 04:25:06;;;;;;;13.50;12.10;;;;;;;13.23;49.33;101209.72;4915380;28;100216;-82
2023/05/03 04:27:32;;;;;;;12.93;11.00;;;;;;;13.36;48.73;101228.72;4943060;28;101075;-83
2023/05/03 04:29:58;;;;;;;12.48;11.13;;;;;;;13.39;49.54;101220.69;4913851;28;96899;-81
2023/05/03 04:32:25;;;;;;;17.27;12.30;;;;;;;13.33;48.88;101198.03;4929216;28;97183;-81
2023/05/03 04:34:54;;;;;;;19.48;10.98;;;;;;;13.50;48.99;101237.06;4922561;28;101856;-82
2023/05/03 04:37:22;;;;;;;13.30;11.35;;;;;;;13.52;48.63;101235.19;4917028;28;101300;-82
2023/05/03 04:39:48;;;;;;;13.57;11.18;;;;;;;13.45;48.14;101211.72;4922993;28;97449;-82
2023/05/03 04:42:14;;;;;;;18.90;11.98;;;;;;;13.65;48.77;101237.47;4944052;28;97191;-82
2023/05/03 04:44:43;;;;;;;15.80;11.88;;;;;;;13.63;48.34;101226.97;4927897;28;101118;-82
2023/05/03 04:47:10;;;;;;;15.43;11.80;;;;;;;13.76;48.16;101235.34;4916943;28;99996;-81
2023/05/03 04:49:37;;;;;;;14.07;11.18;;;;;;;13.77;47.56;101219.47;4939194;28;96993;-81
2023/05/03 04:52:03;;;;;;;14.93;11.25;;;;;;;13.84;47.48;101224.53;4944563;28;96903;-82
2023/05/03 04:54:30;;;;;;;13.55;11.63;;;;;;;13.94;47.40;101233.88;4933227;28;100980;-83
2023/05/03 04:56:56;;;;;;;12.00;10.77;;;;;;;13.97;47.07;101229.34;4922020;28;102215;-82
2023/05/03 04:59:22;;;;;;;12.48;10.88;;;;;;;14.17;46.89;101239.25;4925866;28;96971;-83
2023/05/03 05:01:48;;;;;;;12.48;11.25;;;;;;;14.23;46.47;101243.44;4924794;28;97446;-84
2023/05/03 05:04:14;;;;;;;15.18;11.52;;;;;;;14.30;46.15;101239.66;4927203;28;101534;-83
2023/05/03 05:06:44;;;;;;;12.05;11.07;;;;;;;14.29;46.05;101237.94;4931528;28;102110;-83
2023/05/03 05:09:26;;;;;;;14.85;11.75;;;;;;;14.22;46.16;101239.94;4934273;28;97188;-83
2023/05/03 05:11:54;;;;;;;11.55;10.45;;;;;;;14.33;46.49;101247.47;4951192;28;97186;-83
2023/05/03 05:14:20;;;;;;;12.02;10.52;;;;;;;14.32;46.39;101237.84;4929631;28;101929;-85
2023/05/03 05:16:47;;;;;;;12.32;11.02;;;;;;;14.33;45.92;101246.63;4923417;28;101668;-84
2023/05/03 05:19:14;;;;;;;14.00;11.48;;;;;;;14.29;45.91;101234.44;4929598;28;97330;-83
2023/05/03 05:21:40;;;;;;;13.68;11.27;;;;;;;14.15;46.27;101227.84;4939155;28;97272;-83
2023/05/03 05:24:07;;;;;;;16.50;11.13;;;;;;;14.10;46.25;101235.06;4929860;28;100405;-83
2023/05/03 05:26:33;;;;;;;16.20;11.10;;;;;;;14.19;46.38;101255.00;4918175;28;101444;-82
2023/05/03 05:28:59;;;;;;;15.20;11.38;;;;;;;14.18;46.48;101264.72;4902532;28;97256;-83
2023/05/03 05:31:24;;;;;;;13.02;10.88;;;;;;;14.20;46.23;101260.25;4919188;28;96793;-83
2023/05/03 05:33:51;;;;;;;13.02;10.80;;;;;;;14.23;45.96;101268.06;4950475;28;98264;-84
2023/05/03 05:36:17;;;;;;;11.85;10.60;;;;;;;14.35;46.14;101248.28;4938575;28;101157;-83
2023/05/03 05:38:43;;;;;;;11.10;9.90;;;;;;;14.63;45.90;101269.34;4914658;28;97168;-83
2023/05/03 05:41:09;;;;;;;12.18;10.98;;;;;;;14.66;45.06;101265.72;4926983;28;97049;-84
2023/05/03 05:43:36;;;;;;;18.30;11.57;;;;;;;14.70;45.05;101275.28;4960282;28;101621;-84
2023/05/03 05:46:02;;;;;;;13.52;12.23;;;;;;;14.68;45.70;101272.66;4923305;28;101360;-83
2023/05/03 05:48:29;;;;;;;14.50;11.50;;;;;;;14.71;45.27;101275.22;4927201;28;97555;-83
2023/05/03 05:50:55;;;;;;;13.73;11.93;;;;;;;14.68;45.19;101266.53;4922086;28;97500;-83
2023/05/03 05:53:21;;;;;;;14.82;12.10;;;;;;;14.71;45.76;101272.56;4940357;28;101470;-85
2023/05/03 05:55:53;;;;;;;13.30;11.18;;;;;;;14.82;45.89;101282.75;4922233;28;101543;-83
2023/05/03 05:58:19;;;;;;;11.38;10.27;;;;;;;14.85;45.56;101295.84;4909476;28;97133;-82
2023/05/03 06:00:49;;;;;;;12.30;10.88;;;;;;;14.79;45.08;101277.59;4940531;28;97183;-83
2023/05/03 06:03:16;;;;;;;13.60;11.85;;;;;;;14.93;45.18;101307.03;4922822;28;101487;-84
2023/05/03 06:05:42;;;;;;;12.35;11.10;;;;;;;14.97;45.22;101305.13;4924687;28;101036;-80
2023/05/03 06:08:09;;;;;;;13.52;12.18;;;;;;;15.02;45.17;101308.47;4902559;28;96905;-81
2023/05/03 06:10:35;;;;;;;13.63;10.95;;;;;;;14.95;45.17;101301.66;4927872;28;97203;-81
2023/05/03 06:13:01;;;;;;;12.98;11.60;;;;;;;15.03;44.90;101317.25;4903450;28;101949;-80
2023/05/03 06:15:27;;;;;;;13.00;11.70;;;;;;;15.10;44.78;101324.06;4913474;28;101455;-81
2023/05/03 06:17:53;;;;;;;12.52;10.98;;;;;;;15.03;44.75;101309.31;4934534;28;98950;-81
2023/05/03 06:20:18;;;;;;;12.07;10.98;;;;;;;15.11;44.30;101331.91;4930233;28;97541;-83
2023/05/03 06:22:46;;;;;;;13.73;12.40;;;;;;;14.89;44.76;101299.25;4928202;28;101502;-83
2023/05/03 06:25:13;;;;;;;12.88;11.57;;;;;;;15.12;45.59;101332.78;4907349;28;101979;-83
2023/05/03 06:27:41;;;;;;;13.65;12.35;;;;;;;15.04;44.66;101314.56;4931918;28;97039;-83
2023/05/03 06:30:07;;;;;;;13.73;11.98;;;;;;;14.98;44.73;101311.25;4920889;28;97105;-83
2023/05/03 06:32:33;;;;;;;13.52;11.07;;;;;;;14.97;45.06;101315.69;4944909;28;101617;-84
2023/05/03 06:34:59;;;;;;;11.55;10.45;;;;;;;15.07;44.89;101332.97;4913606;28;101150;-83
2023/05/03 06:37:25;;;;;;;14.70;12.05;;;;;;;15.03;45.35;101336.63;4946125;28;97215;-81
2023/05/03 06:39:51;;;;;;;12.32;10.82;;;;;;;15.02;45.12;101331.41;4922715;28;97623;-85
2023/05/03 06:42:17;;;;;;;12.13;10.98;;;;;;;15.10;45.40;101334.63;4914686;28;101011;-82
2023/05/03 06:44:43;;;;;;;12.27;11.02;;;;;;;15.02;45.42;101313.75;4908109;28;101573;-83
2023/05/03 06:47:12;;;;;;;12.23;11.02;;;;;;;15.14;45.93;101331.81;4923103;28;96771;-81
2023/05/03 06:49:37;;;;;;;13.40;10.50;;;;;;;15.16;45.23;101323.81;4931001;28;97072;-81
2023/05/03 06:52:03;;;;;;;12.80;11.43;;;;;;;15.25;45.29;101331.41;4895404;28;101445;-81
2023/05/03 06:54:28;;;;;;;11.82;10.63;;;;;;;15.29;45.36;101337.44;4913862;28;101731;-80
2023/05/03 06:56:54;;;;;;;12.05;10.70;;;;;;;15.30;45.67;101320.63;4942433;28;97404;-80
2023/05/03 06:59:19;;;;;;;14.20;11.13;;;;;;;15.34;45.32;101309.91;4929070;28;97177;-80
2023/05/03 07:01:45;;;;;;;14.30;10.63;;;;;;;15.40;45.21;101309.66;4940210;28;97829;-82
2023/05/03 07:04:11;;;;;;;11.30;10.25;;;;;;;15.60;45.21;101337.16;4920018;28;100071;-82
2023/05/03 07:06:37;;;;;;;12.52;10.30;;;;;;;15.70;44.87;101333.22;4927031;28;97355;-81
2023/05/03 07:09:03;;;;;;;14.15;11.23;;;;;;;15.75;44.84;101338.34;4922447;28;97325;-85
2023/05/03 07:11:29;;;;;;;13.68;10.50;;;;;;;15.77;44.63;101329.44;4928906;28;101616;-81
2023/05/03 07:13:55;;;;;;;12.55;9.82;;;;;;;15.94;44.02;101330.53;4914921;28;98092;-80
2023/05/03 07:16:21;;;;;;;11.35;9.55;;;;;;;16.15;43.09;101331.47;4940668;28;97342;-80
2023/05/03 07:18:47;;;;;;;13.15;9.70;;;;;;;16.40;42.76;101326.84;4928298;28;97386;-81
2023/05/03 07:21:13;;;;;;;11.30;10.20;;;;;;;16.66;42.70;101331.03;4907124;28;101928;-84
2023/05/03 07:23:39;;;;;;;10.35;9.38;;;;;;;16.82;42.16;101328.63;4928446;28;101587;-80
2023/05/03 07:26:05;;;;;;;11.50;10.15;;;;;;;17.11;41.61;101323.81;4906699;28;97431;-82
2023/05/03 07:28:31;;;;;;;11.70;10.55;;;;;;;17.10;41.61;101276.97;4938800;28;96987;-83
2023/05/03 07:30:56;;;;;;;11.73;10.48;;;;;;;17.85;40.57;101303.50;4911662;28;98658;-82
2023/05/03 07:33:22;;;;;;;13.13;11.20;;;;;;;18.40;40.27;101307.84;4912761;28;101112;-82
2023/05/03 07:35:49;;;;;;;11.77;10.70;;;;;;;18.62;39.21;101298.78;4925166;28;97250;-82
2023/05/03 07:38:15;;;;;;;11.82;10.82;;;;;;;18.65;37.66;101294.16;4938557;28;96980;-81
2023/05/03 07:40:41;;;;;;;12.00;10.90;;;;;;;18.76;37.68;101288.28;4934575;28;98584;-74
2023/05/03 07:43:11;;;;;;;11.02;10.13;;;;;;;18.97;36.99;101299.59;4943381;28;97253;-77
2023/05/03 07:45:37;;;;;;;11.23;10.15;;;;;;;18.80;36.56;101283.69;4930747;28;97370;-77
2023/05/03 07:48:06;;;;;;;11.00;9.88;;;;;;;18.75;36.46;101294.56;4888451;28;97615;-73
2023/05/03 07:50:32;;;;;;;11.23;10.10;;;;;;;18.55;36.60;101292.91;4922370;28;101136;-82
2023/05/03 07:52:57;;;;;;;11.77;10.68;;;;;;;18.55;37.06;101308.84;4916290;28;101352;-80
2023/05/03 07:55:24;;;;;;;11.13;10.13;;;;;;;19.20;36.07;101301.03;4913538;28;97279;-81
2023/05/03 07:57:50;;;;;;;10.90;9.98;;;;;;;19.94;34.57;101300.44;4928625;28;96854;-81
2023/05/03 08:00:16;;;;;;;10.75;9.95;;;;;;;20.47;33.74;101298.22;4903086;28;101434;-79
2023/05/03 08:02:42;;;;;;;12.30;11.02;;;;;;;21.27;32.46;101298.69;4911795;28;101929;-81
2023/05/03 08:05:10;;;;;;;11.45;9.98;;;;;;;22.07;30.96;101299.69;4894299;28;96837;-80
2023/05/03 08:07:35;;;;;;;11.52;10.32;;;;;;;22.53;29.58;101283.22;4924821;28;97308;-80
2023/05/03 08:10:01;;;;;;;11.07;10.18;;;;;;;22.23;29.64;101292.41;4911411;28;101650;-80
2023/05/03 08:12:27;;;;;;;12.07;11.00;;;;;;;21.78;30.95;101275.75;4920439;28;100991;-82
2023/05/03 08:14:53;;;;;;;11.32;10.43;;;;;;;22.08;30.51;101290.72;4904543;28;98038;-81
2023/05/03 08:17:19;;;;;;;11.40;10.30;;;;;;;22.87;29.34;101270.19;4900978;28;97516;-80
2023/05/03 08:19:46;;;;;;;12.00;10.90;;;;;;;23.67;29.24;101292.06;4904530;28;98070;-80
2023/05/03 08:22:11;;;;;;;12.95;11.68;;;;;;;24.31;27.36;101287.25;4909216;28;100789;-81
2023/05/03 08:24:38;;;;;;;11.85;11.05;;;;;;;24.95;27.43;101285.91;4910692;28;97138;-82
2023/05/03 08:27:04;;;;;;;12.93;11.82;;;;;;;24.56;28.14;101266.63;4910138;28;97013;-86
2023/05/03 08:29:31;;;;;;;12.15;11.07;;;;;;;24.44;27.77;101283.69;4926843;28;101705;-82
2023/05/03 08:31:57;;;;;;;12.70;11.60;;;;;;;23.74;28.03;101296.06;4923965;28;101819;-81
2023/05/03 08:34:23;;;;;;;12.25;11.25;;;;;;;22.92;28.03;101286.75;4916398;28;97329;-81
2023/05/03 08:36:50;;;;;;;12.05;11.10;;;;;;;22.45;29.09;101293.59;4916477;28;97383;-82
2023/05/03 08:39:16;;;;;;;12.98;11.93;;;;;;;23.33;28.64;101280.28;4911414;28;101371;-83
2023/05/03 08:41:41;;;;;;;12.60;11.60;;;;;;;24.24;27.48;101295.91;4910719;28;101715;-81
2023/05/03 08:44:07;;;;;;;13.55;12.15;;;;;;;24.21;27.02;101293.47;4918585;28;97093;-83
2023/05/03 08:46:35;;;;;;;12.38;11.30;;;;;;;23.71;27.43;101294.47;4918301;28;96961;-84
2023/05/03 08:49:01;;;;;;;11.77;10.95;;;;;;;23.67;27.87;101295.59;4916417;28;101482;-83
2023/05/03 08:51:27;;;;;;;12.65;11.63;;;;;;;24.07;26.93;101287.31;4930436;28;98273;-84
2023/05/03 08:53:53;;;;;;;12.00;11.02;;;;;;;23.68;27.09;101297.34;4917986;28;97127;-83
2023/05/03 08:56:31;;;;;;;11.40;10.27;;;;;;;24.21;25.77;101283.56;4919091;28;97231;-84
2023/05/03 08:59:03;;;;;;;10.82;9.98;;;;;;;25.23;25.35;101287.28;4902847;28;97623;-82
2023/05/03 09:01:29;;;;;;;11.45;10.60;;;;;;;26.32;25.17;101289.88;4928316;28;97804;-87
2023/05/03 09:03:54;;;;;;;12.23;11.15;;;;;;;26.94;24.19;101288.16;4904712;28;97558;-84
2023/05/03 09:06:21;;;;;;;12.65;11.57;;;;;;;26.89;24.54;101294.94;4903916;28;97693;-81
2023/05/03 09:08:47;;;;;;;12.43;11.38;;;;;;;25.96;24.67;101293.84;4894207;28;101144;-85
2023/05/03 09:11:32;;;;;;;12.50;11.20;;;;;;;25.33;24.99;101295.47;4885687;28;101884;-86
2023/05/03 09:14:17;;;;;;;11.23;10.32;;;;;;;24.66;25.27;101298.97;4911317;28;97285;-85
2023/05/03 09:16:45;;;;;;;11.93;10.77;;;;;;;24.14;25.68;101293.94;4886206;28;97318;-82
2023/05/03 09:19:11;;;;;;;12.52;11.40;;;;;;;24.29;25.78;101308.00;4896089;28;101447;-80
2023/05/03 09:21:38;;;;;;;12.75;11.63;;;;;;;25.02;25.06;101293.38;4897318;28;101715;-81
2023/05/03 09:24:19;;;;;;;12.00;10.90;;;;;;;25.04;24.82;101294.09;4908834;28;97097;-82
2023/05/03 09:26:49;;;;;;;12.88;11.88;;;;;;;25.00;25.46;101300.69;4900976;28;97194;-78
2023/05/03 09:29:33;;;;;;;12.23;11.23;;;;;;;25.30;23.99;101301.94;4887788;28;101293;-83
2023/05/03 09:32:00;;;;;;;12.95;11.90;;;;;;;24.99;25.73;101299.00;4892765;28;101673;-82
2023/05/03 09:34:26;;;;;;;12.10;10.85;;;;;;;24.49;25.96;101301.09;4890487;28;97193;-83
2023/05/03 09:36:51;;;;;;;11.35;10.55;;;;;;;24.78;25.42;101300.66;4913045;28;98125;-85
2023/05/03 09:39:18;;;;;;;11.82;10.60;;;;;;;24.89;25.02;101278.34;4897182;28;97808;-84
2023/05/03 09:41:44;;;;;;;11.75;10.77;;;;;;;24.92;24.39;101286.16;4896225;28;101043;-82
2023/05/03 09:44:09;;;;;;;12.20;11.10;;;;;;;25.19;24.92;101286.69;4914264;28;97103;-81
2023/05/03 09:46:36;;;;;;;12.15;11.05;;;;;;;25.36;25.17;101290.69;4917752;28;97288;-81
2023/05/03 09:49:03;;;;;;;11.90;10.82;;;;;;;24.82;25.38;101280.69;4897235;28;101508;-81
2023/05/03 09:51:30;;;;;;;11.30;10.38;;;;;;;24.52;25.38;101294.66;4888666;28;98342;-81
2023/05/03 09:53:57;;;;;;;11.43;10.45;;;;;;;24.50;25.85;101281.38;4906149;28;97268;-87
2023/05/03 09:56:25;;;;;;;11.75;10.80;;;;;;;24.18;25.24;101275.78;4899149;28;97656;-86
2023/05/03 09:58:52;;;;;;;11.85;10.95;;;;;;;24.11;25.25;101282.56;4893813;28;98153;-82
2023/05/03 10:01:19;;;;;;;11.57;10.73;;;;;;;23.85;25.53;101272.00;4898561;28;97697;-85
2023/05/03 10:03:50;;;;;;;11.70;10.50;;;;;;;23.47;26.05;101282.81;4895588;28;97191;-84
2023/05/03 10:06:38;;;;;;;12.40;11.27;;;;;;;23.05;26.48;101284.97;4893650;28;97168;-82
2023/05/03 10:09:24;;;;;;;12.23;11.32;;;;;;;22.72;27.45;101285.47;4903766;28;97929;-88
2023/05/03 10:11:51;;;;;;;12.15;10.93;;;;;;;22.35;27.88;101290.72;4915673;28;101656;-86
2023/05/03 10:14:20;;;;;;;13.13;11.98;;;;;;;22.20;28.64;101297.97;4911472;28;96857;-84
2023/05/03 10:16:48;;;;;;;11.80;11.00;;;;;;;21.87;28.81;101283.16;4910862;28;97289;-84
2023/05/03 10:19:20;;;;;;;10.50;9.70;;;;;;;21.83;29.36;101291.50;4912195;28;98388;-82
2023/05/03 10:22:01;;;;;;;11.85;10.95;;;;;;;21.93;29.58;101298.81;4928138;28;101191;-82
2023/05/03 10:24:27;;;;;;;12.82;10.20;;;;;;;21.64;29.03;101292.72;4910453;28;97745;-82
2023/05/03 10:26:54;;;;;;;11.68;10.90;;;;;;;21.40;29.11;101278.25;4917619;28;96985;-85
2023/05/03 10:29:32;;;;;;;11.82;10.82;;;;;;;21.46;29.47;101292.06;4933929;28;97677;-82
2023/05/03 10:31:58;;;;;;;13.13;11.85;;;;;;;21.45;30.06;101285.03;4932989;28;103188;-83
2023/05/03 10:34:24;;;;;;;12.93;11.73;;;;;;;21.31;29.34;101277.00;4918466;28;97072;-84
2023/05/03 10:36:54;;;;;;;12.50;11.40;;;;;;;21.14;28.66;101271.88;4915536;28;96933;-83
2023/05/03 10:39:20;;;;;;;11.93;10.85;;;;;;;20.72;28.43;101284.28;4913090;28;101523;-83
2023/05/03 10:42:07;;;;;;;13.05;11.90;;;;;;;19.97;28.69;101270.94;4909295;28;101257;-84
2023/05/03 10:44:40;;;;;;;11.70;10.75;;;;;;;19.69;29.29;101282.31;4946647;28;97565;-84
2023/05/03 10:47:11;;;;;;;10.65;9.82;;;;;;;19.79;30.29;101280.84;4905206;28;97168;-82
2023/05/03 10:49:37;;;;;;;12.35;11.18;;;;;;;20.06;30.59;101275.72;4936713;28;97546;-83
2023/05/03 10:52:03;;;;;;;12.23;10.95;;;;;;;20.21;30.45;101283.75;4920137;28;102688;-81
2023/05/03 10:54:28;;;;;;;11.82;10.77;;;;;;;20.12;30.07;101264.69;4900101;28;97403;-82
2023/05/03 10:56:55;;;;;;;11.88;10.73;;;;;;;20.08;29.95;101260.50;4914986;28;97832;-81
2023/05/03 10:59:21;;;;;;;12.27;11.27;;;;;;;19.90;30.28;101264.25;4908170;28;101323;-81
2023/05/03 11:01:50;;;;;;;12.20;11.30;;;;;;;19.94;29.81;101283.59;4904987;28;97600;-81
2023/05/03 11:04:39;;;;;;;11.70;10.80;;;;;;;19.74;30.14;101290.06;4911152;28;96798;-81
2023/05/03 11:07:05;;;;;;;12.43;11.43;;;;;;;19.66;30.24;101271.84;4904016;28;97203;-82
2023/05/03 11:09:32;;;;;;;13.95;12.70;;;;;;;19.56;30.48;101284.78;4930043;28;97389;-83